Time;durP1;ratioP1;P1;durP2;ratioP2;P2;SDS_P1;SDS_P2;PMS_P1;PMS_P2;Temp;Humidity;BMP_temperature;BMP_pressure;BME280_temperature;BME280_humidity;BME280_pressure;Samples;Min_cycle;Max_cycle;Signal;HPM_P1;HPM_P2
2023/06/16 00:01:35;;;;;;;;;;;;;;;;;;5037257;28;19916;-20
2023/06/16 00:04:03;;;;;;;;;;;;;;;;;;5036793;28;20283;-20
2023/06/16 00:06:29;;;;;;;;;;;;;;;;;;5037208;28;19909;-21
2023/06/16 00:08:55;;;;;;;;;;;;;;;;;;5036839;28;19909;-20
2023/06/16 00:11:21;;;;;;;;;;;;;;;;;;5036899;28;19920;-21
2023/06/16 00:13:47;;;;;;;;;;;;;;;;;;5036687;28;19910;-20
2023/06/16 00:16:13;;;;;;;;;;;;;;;;;;5036656;28;19920;-23
2023/06/16 00:18:43;;;;;;;;;;;;;;;;;;5036655;28;19909;-21
2023/06/16 00:21:09;;;;;;;;;;;;;;;;;;5036641;28;19975;-20
2023/06/16 00:23:35;;;;;;;;;;;;;;;;;;5036546;28;19920;-21
2023/06/16 00:26:01;;;;;;;;;;;;;;;;;;5036595;28;19909;-21
2023/06/16 00:28:27;;;;;;;;;;;;;;;;;;5036545;28;19910;-22
2023/06/16 00:30:53;;;;;;;;;;;;;;;;;;5036491;28;19921;-21
2023/06/16 00:33:19;;;;;;;;;;;;;;;;;;5036365;28;20301;-21
2023/06/16 00:35:45;;;;;;;;;;;;;;;;;;5036646;28;19999;-22
2023/06/16 00:38:11;;;;;;;;;;;;;;;;;;5035320;28;19916;-21
2023/06/16 00:40:37;;;;;;;;;;;;;;;;;;5036377;28;19909;-22
2023/06/16 00:43:03;;;;;;;;;;;;;;;;;;5036404;28;19923;-21
2023/06/16 00:45:29;;;;;;;;;;;;;;;;;;5036225;28;19944;-21
2023/06/16 00:47:55;;;;;;;;;;;;;;;;;;5036095;28;19956;-21
2023/06/16 00:50:23;;;;;;;;;;;;;;;;;;5036126;28;19944;-21
2023/06/16 00:52:49;;;;;;;;;;;;;;;;;;5036156;28;19963;-22
2023/06/16 00:55:16;;;;;;;;;;;;;;;;;;5034991;28;19932;-20
2023/06/16 00:57:42;;;;;;;;;;;;;;;;;;5036171;28;19913;-21
2023/06/16 01:00:11;;;;;;;;;;;;;;;;;;5035937;28;19909;-21
2023/06/16 01:02:37;;;;;;;;;;;;;;;;;;5035655;28;19959;-21
2023/06/16 01:05:03;;;;;;;;;;;;;;;;;;5036129;28;19948;-21
2023/06/16 01:07:29;;;;;;;;;;;;;;;;;;5035786;28;19916;-22
2023/06/16 01:09:55;;;;;;;;;;;;;;;;;;5035986;28;20004;-22
2023/06/16 01:12:21;;;;;;;;;;;;;;;;;;5035629;28;19967;-22
2023/06/16 01:14:47;;;;;;;;;;;;;;;;;;5035634;28;19920;-21
2023/06/16 01:17:13;;;;;;;;;;;;;;;;;;5035512;28;20019;-21
2023/06/16 01:19:39;;;;;;;;;;;;;;;;;;5035849;28;20245;-21
2023/06/16 01:22:06;;;;;;;;;;;;;;;;;;5034488;28;19909;-23
2023/06/16 01:24:32;;;;;;;;;;;;;;;;;;5035516;28;19910;-23
2023/06/16 01:26:58;;;;;;;;;;;;;;;;;;5035404;28;19909;-27
2023/06/16 01:29:24;;;;;;;;;;;;;;;;;;5035589;28;19915;-22
2023/06/16 01:31:51;;;;;;;;;;;;;;;;;;5035321;28;19909;-21
2023/06/16 01:34:17;;;;;;;;;;;;;;;;;;5035563;28;20314;-20
2023/06/16 01:36:43;;;;;;;;;;;;;;;;;;5035423;28;19917;-21
2023/06/16 01:39:09;;;;;;;;;;;;;;;;;;5035524;28;19945;-22
2023/06/16 01:41:35;;;;;;;;;;;;;;;;;;5035427;28;19909;-22
2023/06/16 01:44:01;;;;;;;;;;;;;;;;;;5035102;28;20233;-21
2023/06/16 01:46:27;;;;;;;;;;;;;;;;;;5035024;28;19917;-21
2023/06/16 01:48:53;;;;;;;;;;;;;;;;;;5035269;28;20020;-21
2023/06/16 01:51:20;;;;;;;;;;;;;;;;;;5034729;28;19909;-21
2023/06/16 01:53:46;;;;;;;;;;;;;;;;;;5033946;28;20039;-21
2023/06/16 01:56:11;;;;;;;;;;;;;;;;;;5033903;28;19959;-23
2023/06/16 01:58:38;;;;;;;;;;;;;;;;;;5034875;28;19920;-21
2023/06/16 02:01:04;;;;;;;;;;;;;;;;;;5034914;28;20264;-21
2023/06/16 02:03:30;;;;;;;;;;;;;;;;;;5034553;28;19928;-21
2023/06/16 02:05:56;;;;;;;;;;;;;;;;;;5035111;28;19909;-20
2023/06/16 02:08:22;;;;;;;;;;;;;;;;;;5034776;28;19909;-21
2023/06/16 02:10:48;;;;;;;;;;;;;;;;;;5034819;28;19975;-22
2023/06/16 02:13:14;;;;;;;;;;;;;;;;;;5034798;28;19913;-22
2023/06/16 02:15:40;;;;;;;;;;;;;;;;;;5034604;28;20213;-21
2023/06/16 02:18:09;;;;;;;;;;;;;;;;;;5034666;28;19944;-21
2023/06/16 02:20:35;;;;;;;;;;;;;;;;;;5033881;28;19909;-22
2023/06/16 02:23:01;;;;;;;;;;;;;;;;;;5034697;28;19974;-21
2023/06/16 02:25:27;;;;;;;;;;;;;;;;;;5034938;28;19909;-19
2023/06/16 02:27:53;;;;;;;;;;;;;;;;;;5034861;28;20263;-22
2023/06/16 02:30:19;;;;;;;;;;;;;;;;;;5034608;28;19920;-21
2023/06/16 02:32:48;;;;;;;;;;;;;;;;;;5034474;28;19913;-21
2023/06/16 02:35:14;;;;;;;;;;;;;;;;;;5034807;28;20000;-21
2023/06/16 02:37:41;;;;;;;;;;;;;;;;;;5034759;28;20419;-20
2023/06/16 02:40:07;;;;;;;;;;;;;;;;;;5034487;28;19910;-22
2023/06/16 02:42:33;;;;;;;;;;;;;;;;;;5034447;28;19917;-21
2023/06/16 02:44:59;;;;;;;;;;;;;;;;;;5034349;28;20398;-23
2023/06/16 02:47:26;;;;;;;;;;;;;;;;;;5034643;28;19920;-21
2023/06/16 02:49:52;;;;;;;;;;;;;;;;;;5034654;28;19909;-20
2023/06/16 02:52:18;;;;;;;;;;;;;;;;;;5034470;28;20328;-20
2023/06/16 02:54:44;;;;;;;;;;;;;;;;;;5034396;28;19976;-22
2023/06/16 02:57:10;;;;;;;;;;;;;;;;;;5034344;28;20252;-21
2023/06/16 02:59:36;;;;;;;;;;;;;;;;;;5033349;28;19909;-21
2023/06/16 03:02:02;;;;;;;;;;;;;;;;;;5035830;28;19921;-22
2023/06/16 03:04:28;;;;;;;;;;;;;;;;;;5041843;28;20252;-21
2023/06/16 03:06:57;;;;;;;;;;;;;;;;;;5038025;28;19920;-21
2023/06/16 03:09:23;;;;;;;;;;;;;;;;;;5038524;28;19921;-21
2023/06/16 03:11:49;;;;;;;;;;;;;;;;;;5037927;28;19909;-21
2023/06/16 03:14:15;;;;;;;;;;;;;;;;;;5037947;28;19909;-23
2023/06/16 03:16:42;;;;;;;;;;;;;;;;;;5038135;28;20320;-22
2023/06/16 03:19:08;;;;;;;;;;;;;;;;;;5037871;28;19909;-20
2023/06/16 03:21:34;;;;;;;;;;;;;;;;;;5038037;28;19944;-21
2023/06/16 03:24:00;;;;;;;;;;;;;;;;;;5037647;28;19999;-20
2023/06/16 03:26:26;;;;;;;;;;;;;;;;;;5037882;28;19952;-20
2023/06/16 03:28:52;;;;;;;;;;;;;;;;;;5037867;28;19913;-22
2023/06/16 03:31:19;;;;;;;;;;;;;;;;;;5037599;28;19920;-21
2023/06/16 03:33:45;;;;;;;;;;;;;;;;;;5037480;28;20418;-21
2023/06/16 03:36:11;;;;;;;;;;;;;;;;;;5037678;28;19912;-21
2023/06/16 03:38:37;;;;;;;;;;;;;;;;;;5037355;28;19909;-22
2023/06/16 03:41:03;;;;;;;;;;;;;;;;;;5037299;28;20310;-20
2023/06/16 03:43:29;;;;;;;;;;;;;;;;;;5036218;28;19909;-20
2023/06/16 03:45:55;;;;;;;;;;;;;;;;;;5037257;28;19909;-22
2023/06/16 03:48:21;;;;;;;;;;;;;;;;;;5036167;28;19936;-21
2023/06/16 03:50:47;;;;;;;;;;;;;;;;;;5037431;28;20324;-21
2023/06/16 03:53:13;;;;;;;;;;;;;;;;;;5036823;28;19981;-20
2023/06/16 03:55:39;;;;;;;;;;;;;;;;;;5036822;28;20000;-22
2023/06/16 03:58:07;;;;;;;;;;;;;;;;;;5037036;28;19917;-23
2023/06/16 04:00:33;;;;;;;;;;;;;;;;;;5037586;28;20344;-21
2023/06/16 04:02:59;;;;;;;;;;;;;;;;;;5036746;28;19909;-22
2023/06/16 04:05:25;;;;;;;;;;;;;;;;;;5036502;28;19964;-22
2023/06/16 04:07:51;;;;;;;;;;;;;;;;;;5036692;28;19909;-20
2023/06/16 04:10:17;;;;;;;;;;;;;;;;;;5036583;28;20284;-22
2023/06/16 04:12:43;;;;;;;;;;;;;;;;;;5035105;28;19919;-21
2023/06/16 04:15:09;;;;;;;;;;;;;;;;;;5036278;28;19971;-22
2023/06/16 04:17:35;;;;;;;;;;;;;;;;;;5036150;28;20031;-22
2023/06/16 04:20:01;;;;;;;;;;;;;;;;;;5036329;28;19909;-21
2023/06/16 04:22:27;;;;;;;;;;;;;;;;;;5036225;28;19921;-21
2023/06/16 04:24:53;;;;;;;;;;;;;;;;;;5036166;28;19909;-21
2023/06/16 04:27:23;;;;;;;;;;;;;;;;;;5036463;28;19917;-21
2023/06/16 04:29:49;;;;;;;;;;;;;;;;;;5036222;28;20350;-21
2023/06/16 04:32:16;;;;;;;;;;;;;;;;;;5036006;28;19909;-20
2023/06/16 04:34:42;;;;;;;;;;;;;;;;;;5036082;28;19909;-21
2023/06/16 04:37:11;;;;;;;;;;;;;;;;;;5036083;28;19924;-20
2023/06/16 04:39:37;;;;;;;;;;;;;;;;;;5035872;28;19909;-22
2023/06/16 04:42:04;;;;;;;;;;;;;;;;;;5035903;28;20007;-20
2023/06/16 04:44:30;;;;;;;;;;;;;;;;;;5035963;28;19944;-21
2023/06/16 04:46:56;;;;;;;;;;;;;;;;;;5036051;28;19909;-21
2023/06/16 04:49:22;;;;;;;;;;;;;;;;;;5034957;28;19920;-23
2023/06/16 04:51:48;;;;;;;;;;;;;;;;;;5035970;28;19967;-20
2023/06/16 04:54:14;;;;;;;;;;;;;;;;;;5035546;28;19909;-22
2023/06/16 04:56:40;;;;;;;;;;;;;;;;;;5035790;28;19913;-22
2023/06/16 04:59:06;;;;;;;;;;;;;;;;;;5035523;28;19910;-21
2023/06/16 05:01:32;;;;;;;;;;;;;;;;;;5035779;28;19971;-21
2023/06/16 05:03:58;;;;;;;;;;;;;;;;;;5035200;28;19964;-21
2023/06/16 05:06:24;;;;;;;;;;;;;;;;;;5035531;28;20272;-22
2023/06/16 05:08:50;;;;;;;;;;;;;;;;;;5034506;28;20295;-22
2023/06/16 05:11:16;;;;;;;;;;;;;;;;;;5035391;28;19909;-20
2023/06/16 05:13:42;;;;;;;;;;;;;;;;;;5034314;28;19920;-21
2023/06/16 05:16:08;;;;;;;;;;;;;;;;;;5035122;28;19913;-21
2023/06/16 05:18:34;;;;;;;;;;;;;;;;;;5035331;28;20004;-22
2023/06/16 05:21:00;;;;;;;;;;;;;;;;;;5035168;28;19909;-22
2023/06/16 05:23:26;;;;;;;;;;;;;;;;;;5033955;28;19909;-21
2023/06/16 05:25:52;;;;;;;;;;;;;;;;;;5033541;28;19949;-20
2023/06/16 05:28:18;;;;;;;;;;;;;;;;;;5035410;28;19909;-21
2023/06/16 05:30:44;;;;;;;;;;;;;;;;;;5035115;28;19917;-22
2023/06/16 05:33:10;;;;;;;;;;;;;;;;;;5035048;28;20071;-23
2023/06/16 05:35:36;;;;;;;;;;;;;;;;;;5034788;28;19972;-21
2023/06/16 05:38:02;;;;;;;;;;;;;;;;;;5034902;28;19921;-20
2023/06/16 05:40:28;;;;;;;;;;;;;;;;;;5034738;28;19916;-20
2023/06/16 05:42:54;;;;;;;;;;;;;;;;;;5034555;28;19939;-21
2023/06/16 05:45:20;;;;;;;;;;;;;;;;;;5034713;28;19913;-22
2023/06/16 05:47:46;;;;;;;;;;;;;;;;;;5034667;28;19913;-21
2023/06/16 05:50:12;;;;;;;;;;;;;;;;;;5034439;28;19971;-21
2023/06/16 05:52:38;;;;;;;;;;;;;;;;;;5034262;28;20348;-21
2023/06/16 05:55:04;;;;;;;;;;;;;;;;;;5034496;28;19991;-21
2023/06/16 05:57:30;;;;;;;;;;;;;;;;;;5034506;28;20038;-22
2023/06/16 05:59:56;;;;;;;;;;;;;;;;;;5034245;28;19984;-21
2023/06/16 06:02:24;;;;;;;;;;;;;;;;;;5034075;28;19928;-21
2023/06/16 06:04:50;;;;;;;;;;;;;;;;;;5034380;28;19974;-21
2023/06/16 06:07:16;;;;;;;;;;;;;;;;;;5034280;28;19913;-23
2023/06/16 06:09:42;;;;;;;;;;;;;;;;;;5034444;28;19909;-21
2023/06/16 06:12:08;;;;;;;;;;;;;;;;;;5033994;28;20344;-20
2023/06/16 06:14:34;;;;;;;;;;;;;;;;;;5033752;28;19920;-22
2023/06/16 06:17:00;;;;;;;;;;;;;;;;;;5033769;28;19913;-23
2023/06/16 06:19:26;;;;;;;;;;;;;;;;;;5032531;28;20332;-22
2023/06/16 06:21:52;;;;;;;;;;;;;;;;;;5033734;28;19948;-21
2023/06/16 06:24:20;;;;;;;;;;;;;;;;;;5033644;28;19920;-21
2023/06/16 06:26:46;;;;;;;;;;;;;;;;;;5033533;28;19913;-21
2023/06/16 06:29:12;;;;;;;;;;;;;;;;;;5034068;28;19920;-20
2023/06/16 06:31:37;;;;;;;;;;;;;;;;;;5033509;28;19963;-20
2023/06/16 06:34:03;;;;;;;;;;;;;;;;;;5033317;28;19925;-24
2023/06/16 06:36:29;;;;;;;;;;;;;;;;;;5034743;28;19917;-22
2023/06/16 06:38:55;;;;;;;;;;;;;;;;;;5038020;28;19932;-21
2023/06/16 06:41:21;;;;;;;;;;;;;;;;;;5038212;28;19944;-21
2023/06/16 06:43:47;;;;;;;;;;;;;;;;;;5038183;28;20233;-21
2023/06/16 06:46:13;;;;;;;;;;;;;;;;;;5038182;28;19924;-22
2023/06/16 06:48:39;;;;;;;;;;;;;;;;;;5038033;28;19909;-21
2023/06/16 06:51:05;;;;;;;;;;;;;;;;;;5038063;28;19909;-21
2023/06/16 06:53:32;;;;;;;;;;;;;;;;;;5037909;28;19919;-22
2023/06/16 06:55:58;;;;;;;;;;;;;;;;;;5038153;28;19916;-21
2023/06/16 06:58:24;;;;;;;;;;;;;;;;;;5036722;28;19993;-22
2023/06/16 07:00:50;;;;;;;;;;;;;;;;;;5037609;28;20321;-21
2023/06/16 07:03:16;;;;;;;;;;;;;;;;;;5037432;28;19916;-23
2023/06/16 07:05:42;;;;;;;;;;;;;;;;;;5037475;28;19920;-20
2023/06/16 07:08:08;;;;;;;;;;;;;;;;;;5037492;28;19916;-21
2023/06/16 07:10:36;;;;;;;;;;;;;;;;;;5037418;28;19909;-20
2023/06/16 07:13:02;;;;;;;;;;;;;;;;;;5037420;28;19917;-20
2023/06/16 07:15:28;;;;;;;;;;;;;;;;;;5037573;28;20276;-21
2023/06/16 07:17:54;;;;;;;;;;;;;;;;;;5037438;28;19917;-21
2023/06/16 07:20:20;;;;;;;;;;;;;;;;;;5037410;28;19936;-21
2023/06/16 07:22:47;;;;;;;;;;;;;;;;;;5037466;28;20209;-22
2023/06/16 07:25:13;;;;;;;;;;;;;;;;;;5036285;28;19909;-22
2023/06/16 07:27:39;;;;;;;;;;;;;;;;;;5037440;28;19963;-21
2023/06/16 07:30:05;;;;;;;;;;;;;;;;;;5037184;28;19909;-20
2023/06/16 07:32:31;;;;;;;;;;;;;;;;;;5037124;28;19963;-20
2023/06/16 07:34:57;;;;;;;;;;;;;;;;;;5037308;28;20347;-23
2023/06/16 07:37:23;;;;;;;;;;;;;;;;;;5037173;28;19956;-21
2023/06/16 07:39:49;;;;;;;;;;;;;;;;;;5037175;28;20000;-21
2023/06/16 07:42:16;;;;;;;;;;;;;;;;;;5036908;28;20303;-21
2023/06/16 07:44:42;;;;;;;;;;;;;;;;;;5036997;28;19917;-20
2023/06/16 07:47:08;;;;;;;;;;;;;;;;;;5036341;28;19909;-22
2023/06/16 07:49:33;;;;;;;;;;;;;;;;;;5036600;28;19913;-21
2023/06/16 07:51:59;;;;;;;;;;;;;;;;;;5037069;28;19952;-24
2023/06/16 07:54:25;;;;;;;;;;;;;;;;;;5037035;28;19909;-20
2023/06/16 07:56:51;;;;;;;;;;;;;;;;;;5037039;28;20016;-21
2023/06/16 07:59:17;;;;;;;;;;;;;;;;;;5036683;28;19910;-22
2023/06/16 08:01:44;;;;;;;;;;;;;;;;;;5036935;28;19940;-20
2023/06/16 08:04:10;;;;;;;;;;;;;;;;;;5036573;28;19924;-23
2023/06/16 08:06:36;;;;;;;;;;;;;;;;;;5036429;28;19932;-21
2023/06/16 08:09:03;;;;;;;;;;;;;;;;;;5036457;28;19910;-22
2023/06/16 08:11:29;;;;;;;;;;;;;;;;;;5035173;28;20359;-21
2023/06/16 08:13:57;;;;;;;;;;;;;;;;;;5034539;28;20197;-22
2023/06/16 08:16:23;;;;;;;;;;;;;;;;;;5036585;28;20008;-20
2023/06/16 08:18:50;;;;;;;;;;;;;;;;;;5036277;28;20306;-21
2023/06/16 08:21:16;;;;;;;;;;;;;;;;;;5036768;28;20020;-20
2023/06/16 08:23:42;;;;;;;;;;;;;;;;;;5036326;28;19956;-21
2023/06/16 08:26:08;;;;;;;;;;;;;;;;;;5036472;28;19920;-22
2023/06/16 08:28:37;;;;;;;;;;;;;;;;;;5036027;28;19913;-22
2023/06/16 08:31:03;;;;;;;;;;;;;;;;;;5035936;28;19925;-20
2023/06/16 08:33:30;;;;;;;;;;;;;;;;;;5036058;28;20389;-22
2023/06/16 08:35:56;;;;;;;;;;;;;;;;;;5035836;28;19935;-22
2023/06/16 08:38:22;;;;;;;;;;;;;;;;;;5035875;28;19909;-21
2023/06/16 08:40:48;;;;;;;;;;;;;;;;;;5035588;28;20201;-20
2023/06/16 08:43:14;;;;;;;;;;;;;;;;;;5035364;28;19924;-21
2023/06/16 08:45:40;;;;;;;;;;;;;;;;;;5034040;28;19928;-23
2023/06/16 08:48:06;;;;;;;;;;;;;;;;;;5035141;28;19909;-22
2023/06/16 08:50:32;;;;;;;;;;;;;;;;;;5035148;28;20359;-21
2023/06/16 08:53:00;;;;;;;;;;;;;;;;;;5035032;28;19913;-20
2023/06/16 08:55:26;;;;;;;;;;;;;;;;;;5035038;28;19909;-21
2023/06/16 08:57:52;;;;;;;;;;;;;;;;;;5035089;28;20025;-21
2023/06/16 09:00:18;;;;;;;;;;;;;;;;;;5034070;28;20252;-22
2023/06/16 09:02:56;;;;;;;;;;;;;;;;;;5033834;28;19913;-22
2023/06/16 09:05:22;;;;;;;;;;;;;;;;;;5034964;28;19932;-22
2023/06/16 09:07:49;;;;;;;;;;;;;;;;;;5034828;28;19909;-21
2023/06/16 09:10:16;;;;;;;;;;;;;;;;;;5034729;28;19913;-22
2023/06/16 09:12:42;;;;;;;;;;;;;;;;;;5034892;28;19917;-22
2023/06/16 09:15:11;;;;;;;;;;;;;;;;;;5034564;28;19931;-21
2023/06/16 09:17:40;;;;;;;;;;;;;;;;;;5034505;28;19924;-23
2023/06/16 09:20:06;;;;;;;;;;;;;;;;;;5034580;28;19955;-20
2023/06/16 09:22:32;;;;;;;;;;;;;;;;;;5035078;28;20071;-22
2023/06/16 09:24:58;;;;;;;;;;;;;;;;;;5035146;28;19963;-22
2023/06/16 09:27:25;;;;;;;;;;;;;;;;;;5035347;28;19917;-22
2023/06/16 09:29:51;;;;;;;;;;;;;;;;;;5035245;28;19913;-22
2023/06/16 09:32:17;;;;;;;;;;;;;;;;;;5035390;28;19916;-22
2023/06/16 09:34:46;;;;;;;;;;;;;;;;;;5034104;28;19920;-20
2023/06/16 09:37:12;;;;;;;;;;;;;;;;;;5035009;28;20023;-21
2023/06/16 09:39:38;;;;;;;;;;;;;;;;;;5034955;28;19913;-20
2023/06/16 09:42:04;;;;;;;;;;;;;;;;;;5034991;28;19925;-21
2023/06/16 09:44:30;;;;;;;;;;;;;;;;;;5034966;28;19952;-22
2023/06/16 09:46:56;;;;;;;;;;;;;;;;;;5034937;28;20064;-21
2023/06/16 09:49:22;;;;;;;;;;;;;;;;;;5033816;28;19975;-22
2023/06/16 09:51:48;;;;;;;;;;;;;;;;;;5034892;28;20004;-22
2023/06/16 09:54:14;;;;;;;;;;;;;;;;;;5033788;28;19944;-20
2023/06/16 09:56:40;;;;;;;;;;;;;;;;;;5034924;28;20314;-22
2023/06/16 09:59:06;;;;;;;;;;;;;;;;;;5034712;28;19956;-21
2023/06/16 10:01:33;;;;;;;;;;;;;;;;;;5033507;28;19952;-22
2023/06/16 10:04:00;;;;;;;;;;;;;;;;;;5033133;28;20107;-21
2023/06/16 10:06:28;;;;;;;;;;;;;;;;;;5034332;28;19920;-22
2023/06/16 10:08:54;;;;;;;;;;;;;;;;;;5034636;28;19912;-22
2023/06/16 10:11:20;;;;;;;;;;;;;;;;;;5034220;28;19920;-22
2023/06/16 10:13:46;;;;;;;;;;;;;;;;;;5034348;28;20336;-22
2023/06/16 10:16:12;;;;;;;;;;;;;;;;;;5033234;28;19920;-27
2023/06/16 10:18:38;;;;;;;;;;;;;;;;;;5034834;28;19909;-24
2023/06/16 10:21:04;;;;;;;;;;;;;;;;;;5034805;28;20233;-24
2023/06/16 10:23:30;;;;;;;;;;;;;;;;;;5034415;28;19909;-21
2023/06/16 10:25:57;;;;;;;;;;;;;;;;;;5034345;28;19909;-21
2023/06/16 10:28:23;;;;;;;;;;;;;;;;;;5034485;28;19992;-20
2023/06/16 10:30:50;;;;;;;;;;;;;;;;;;5034050;28;20314;-22
2023/06/16 10:33:16;;;;;;;;;;;;;;;;;;5033070;28;20003;-23
2023/06/16 10:35:42;;;;;;;;;;;;;;;;;;5034232;28;19913;-21
2023/06/16 10:38:08;;;;;;;;;;;;;;;;;;5034158;28;19971;-23
2023/06/16 10:40:35;;;;;;;;;;;;;;;;;;5034510;28;19910;-22
2023/06/16 10:43:02;;;;;;;;;;;;;;;;;;5034125;28;19966;-20
2023/06/16 10:45:39;;;;;;;;;;;;;;;;;;5033005;28;19921;-22
2023/06/16 10:48:10;;;;;;;;;;;;;;;;;;5034069;28;19960;-21
2023/06/16 10:50:37;;;;;;;;;;;;;;;;;;5034156;28;19910;-21
2023/06/16 10:53:03;;;;;;;;;;;;;;;;;;5033854;28;19909;-21
2023/06/16 10:55:31;;;;;;;;;;;;;;;;;;5033972;28;19935;-21
2023/06/16 10:57:58;;;;;;;;;;;;;;;;;;5034092;28;19995;-20
2023/06/16 11:00:27;;;;;;;;;;;;;;;;;;5033940;28;20007;-21
2023/06/16 11:02:53;;;;;;;;;;;;;;;;;;5033292;28;19921;-20
2023/06/16 11:05:22;;;;;;;;;;;;;;;;;;5033679;28;20400;-22
2023/06/16 11:07:48;;;;;;;;;;;;;;;;;;5034118;28;20360;-22
2023/06/16 11:10:14;;;;;;;;;;;;;;;;;;5032744;28;19967;-20
2023/06/16 11:12:40;;;;;;;;;;;;;;;;;;5033644;28;19916;-23
2023/06/16 11:15:06;;;;;;;;;;;;;;;;;;5033674;28;19967;-21
2023/06/16 11:17:32;;;;;;;;;;;;;;;;;;5033897;28;19913;-21
2023/06/16 11:19:58;;;;;;;;;;;;;;;;;;5033581;28;19909;-22
2023/06/16 11:22:24;;;;;;;;;;;;;;;;;;5034066;28;19909;-23
2023/06/16 11:24:50;;;;;;;;;;;;;;;;;;5037513;28;19909;-21
2023/06/16 11:27:16;;;;;;;;;;;;;;;;;;5037767;28;20284;-22
2023/06/16 11:29:42;;;;;;;;;;;;;;;;;;5037478;28;19994;-22
2023/06/16 11:32:08;;;;;;;;;;;;;;;;;;5037600;28;19913;-22
2023/06/16 11:34:34;;;;;;;;;;;;;;;;;;5037494;28;19913;-23
2023/06/16 11:37:01;;;;;;;;;;;;;;;;;;5036290;28;19963;-21
2023/06/16 11:39:27;;;;;;;;;;;;;;;;;;5037242;28;20007;-22
2023/06/16 11:41:53;;;;;;;;;;;;;;;;;;5037173;28;19910;-21
2023/06/16 11:44:20;;;;;;;;;;;;;;;;;;5037157;28;20243;-22
2023/06/16 11:46:46;;;;;;;;;;;;;;;;;;5037376;28;20004;-21
2023/06/16 11:49:12;;;;;;;;;;;;;;;;;;5037129;28;19909;-21
2023/06/16 11:51:38;;;;;;;;;;;;;;;;;;5036448;28;19967;-21
2023/06/16 11:54:05;;;;;;;;;;;;;;;;;;5036980;28;19909;-21
2023/06/16 11:56:31;;;;;;;;;;;;;;;;;;5036898;28;19963;-21
2023/06/16 11:58:57;;;;;;;;;;;;;;;;;;5037126;28;20324;-22
2023/06/16 12:01:25;;;;;;;;;;;;;;;;;;5036954;28;19920;-21
2023/06/16 12:03:51;;;;;;;;;;;;;;;;;;5036511;28;20004;-21
2023/06/16 12:06:17;;;;;;;;;;;;;;;;;;5036763;28;19967;-22
2023/06/16 12:08:44;;;;;;;;;;;;;;;;;;5036674;28;19913;-21
2023/06/16 12:11:10;;;;;;;;;;;;;;;;;;5036607;28;19909;-22
2023/06/16 12:13:36;;;;;;;;;;;;;;;;;;5036565;28;19915;-22
2023/06/16 12:16:02;;;;;;;;;;;;;;;;;;5036450;28;20310;-21
2023/06/16 12:18:28;;;;;;;;;;;;;;;;;;5036823;28;19940;-20
2023/06/16 12:20:54;;;;;;;;;;;;;;;;;;5036527;28;20066;-22
2023/06/16 12:23:20;;;;;;;;;;;;;;;;;;5036382;28;19977;-23
2023/06/16 12:25:46;;;;;;;;;;;;;;;;;;5036490;28;19936;-22
2023/06/16 12:28:14;;;;;;;;;;;;;;;;;;5036398;28;19935;-21
2023/06/16 12:30:40;;;;;;;;;;;;;;;;;;5036249;28;20020;-22
2023/06/16 12:33:06;;;;;;;;;;;;;;;;;;5036347;28;19975;-30
2023/06/16 12:35:32;;;;;;;;;;;;;;;;;;5036519;28;19944;-21
2023/06/16 12:37:58;;;;;;;;;;;;;;;;;;5036186;28;20376;-21
2023/06/16 12:40:25;;;;;;;;;;;;;;;;;;5036074;28;20242;-20
2023/06/16 12:42:50;;;;;;;;;;;;;;;;;;5035951;28;19948;-21
2023/06/16 12:45:16;;;;;;;;;;;;;;;;;;5035799;28;20015;-23
2023/06/16 12:47:42;;;;;;;;;;;;;;;;;;5035851;28;19920;-21
2023/06/16 12:50:08;;;;;;;;;;;;;;;;;;5034755;28;19967;-21
2023/06/16 12:52:34;;;;;;;;;;;;;;;;;;5035561;28;19913;-20
2023/06/16 12:55:01;;;;;;;;;;;;;;;;;;5035723;28;19909;-22
2023/06/16 12:57:26;;;;;;;;;;;;;;;;;;5035561;28;19913;-21
2023/06/16 12:59:52;;;;;;;;;;;;;;;;;;5035484;28;20225;-23
2023/06/16 13:02:18;;;;;;;;;;;;;;;;;;5035695;28;19975;-21
2023/06/16 13:04:44;;;;;;;;;;;;;;;;;;5035427;28;20023;-20
2023/06/16 13:07:10;;;;;;;;;;;;;;;;;;5034597;28;19919;-21
2023/06/16 13:09:37;;;;;;;;;;;;;;;;;;5035803;28;19959;-21
2023/06/16 13:12:03;;;;;;;;;;;;;;;;;;5035477;28;19949;-23
2023/06/16 13:14:29;;;;;;;;;;;;;;;;;;5035615;28;19920;-22
2023/06/16 13:16:55;;;;;;;;;;;;;;;;;;5035240;28;20362;-25
2023/06/16 13:19:21;;;;;;;;;;;;;;;;;;5035491;28;20205;-22
2023/06/16 13:21:47;;;;;;;;;;;;;;;;;;5035579;28;20011;-21
2023/06/16 13:24:13;;;;;;;;;;;;;;;;;;5034702;28;19985;-22
2023/06/16 13:26:39;;;;;;;;;;;;;;;;;;5035779;28;19928;-19
2023/06/16 13:29:05;;;;;;;;;;;;;;;;;;5034306;28;19909;-23
2023/06/16 13:31:31;;;;;;;;;;;;;;;;;;5035080;28;19916;-21
2023/06/16 13:33:58;;;;;;;;;;;;;;;;;;5034136;28;19919;-22
2023/06/16 13:36:24;;;;;;;;;;;;;;;;;;5035436;28;19925;-22
2023/06/16 13:38:53;;;;;;;;;;;;;;;;;;5035699;28;19909;-21
2023/06/16 13:41:19;;;;;;;;;;;;;;;;;;5035370;28;19909;-21
2023/06/16 13:43:45;;;;;;;;;;;;;;;;;;5035181;28;20276;-21
2023/06/16 13:46:11;;;;;;;;;;;;;;;;;;5034759;28;19921;-20
2023/06/16 13:48:37;;;;;;;;;;;;;;;;;;5035080;28;20344;-22
2023/06/16 13:51:03;;;;;;;;;;;;;;;;;;5035088;28;19909;-23
2023/06/16 13:53:29;;;;;;;;;;;;;;;;;;5034730;28;19909;-22
2023/06/16 13:55:55;;;;;;;;;;;;;;;;;;5035164;28;19910;-22
2023/06/16 13:58:21;;;;;;;;;;;;;;;;;;5034850;28;20051;-23
2023/06/16 14:00:47;;;;;;;;;;;;;;;;;;5033599;28;20331;-23
2023/06/16 14:03:13;;;;;;;;;;;;;;;;;;5034419;28;19917;-23
2023/06/16 14:05:39;;;;;;;;;;;;;;;;;;5035105;28;19920;-21
2023/06/16 14:08:05;;;;;;;;;;;;;;;;;;5034655;28;19953;-21
2023/06/16 14:10:31;;;;;;;;;;;;;;;;;;5034603;28;19909;-21
2023/06/16 14:12:57;;;;;;;;;;;;;;;;;;5034794;28;19909;-22
2023/06/16 14:15:23;;;;;;;;;;;;;;;;;;5034335;28;20370;-23
2023/06/16 14:17:49;;;;;;;;;;;;;;;;;;5033289;28;19924;-21
2023/06/16 14:20:15;;;;;;;;;;;;;;;;;;5034615;28;19909;-22
2023/06/16 14:22:41;;;;;;;;;;;;;;;;;;5034564;28;20307;-20
2023/06/16 14:25:07;;;;;;;;;;;;;;;;;;5034741;28;19971;-22
2023/06/16 14:27:33;;;;;;;;;;;;;;;;;;5034416;28;19967;-24
2023/06/16 14:29:59;;;;;;;;;;;;;;;;;;5034600;28;19920;-21
2023/06/16 14:32:25;;;;;;;;;;;;;;;;;;5034411;28;19913;-22
2023/06/16 14:34:51;;;;;;;;;;;;;;;;;;5034377;28;19987;-21
2023/06/16 14:37:17;;;;;;;;;;;;;;;;;;5034497;28;19955;-22
2023/06/16 14:39:43;;;;;;;;;;;;;;;;;;5034376;28;19909;-21
2023/06/16 14:42:09;;;;;;;;;;;;;;;;;;5034294;28;20003;-22
2023/06/16 14:44:35;;;;;;;;;;;;;;;;;;5034260;28;20076;-21
2023/06/16 14:47:01;;;;;;;;;;;;;;;;;;5034062;28;20356;-21
2023/06/16 14:49:27;;;;;;;;;;;;;;;;;;5034325;28;20004;-21
2023/06/16 14:51:53;;;;;;;;;;;;;;;;;;5034058;28;19987;-23
2023/06/16 14:54:19;;;;;;;;;;;;;;;;;;5034166;28;19917;-21
2023/06/16 14:56:45;;;;;;;;;;;;;;;;;;5032856;28;19913;-22
2023/06/16 14:59:11;;;;;;;;;;;;;;;;;;5037134;28;20272;-21
2023/06/16 15:01:37;;;;;;;;;;;;;;;;;;5037626;28;19909;-21
2023/06/16 15:04:03;;;;;;;;;;;;;;;;;;5037501;28;19921;-21
2023/06/16 15:06:29;;;;;;;;;;;;;;;;;;5038182;28;19909;-22
2023/06/16 15:08:55;;;;;;;;;;;;;;;;;;5037854;28;20050;-21
2023/06/16 15:11:21;;;;;;;;;;;;;;;;;;5038001;28;19945;-20
2023/06/16 15:13:47;;;;;;;;;;;;;;;;;;5037588;28;19949;-21
2023/06/16 15:16:13;;;;;;;;;;;;;;;;;;5037174;28;19916;-22
2023/06/16 15:18:39;;;;;;;;;;;;;;;;;;5036676;28;20006;-22
2023/06/16 15:21:08;;;;;;;;;;;;;;;;;;5036937;28;20019;-21
2023/06/16 15:23:34;;;;;;;;;;;;;;;;;;5036779;28;19937;-22
2023/06/16 15:26:00;;;;;;;;;;;;;;;;;;5037819;28;19958;-20
2023/06/16 15:28:26;;;;;;;;;;;;;;;;;;5035889;28;20340;-23
2023/06/16 15:30:52;;;;;;;;;;;;;;;;;;5036867;28;20257;-21
2023/06/16 15:33:17;;;;;;;;;;;;;;;;;;5036596;28;19909;-21
2023/06/16 15:35:43;;;;;;;;;;;;;;;;;;5036938;28;20343;-22
2023/06/16 15:38:09;;;;;;;;;;;;;;;;;;5035721;28;20296;-23
2023/06/16 15:40:35;;;;;;;;;;;;;;;;;;5037121;28;20339;-21
2023/06/16 15:43:01;;;;;;;;;;;;;;;;;;5037062;28;19916;-22
2023/06/16 15:45:27;;;;;;;;;;;;;;;;;;5037440;28;19992;-20
2023/06/16 15:47:53;;;;;;;;;;;;;;;;;;5037164;28;19913;-21
2023/06/16 15:50:19;;;;;;;;;;;;;;;;;;5036316;28;20047;-22
2023/06/16 15:52:45;;;;;;;;;;;;;;;;;;5037006;28;20320;-21
2023/06/16 15:55:11;;;;;;;;;;;;;;;;;;5037129;28;19909;-21
2023/06/16 15:57:37;;;;;;;;;;;;;;;;;;5037248;28;19913;-21
2023/06/16 16:00:03;;;;;;;;;;;;;;;;;;5036753;28;19909;-21
2023/06/16 16:02:29;;;;;;;;;;;;;;;;;;5037280;28;19948;-22
2023/06/16 16:04:55;;;;;;;;;;;;;;;;;;5037101;28;20405;-22
2023/06/16 16:07:21;;;;;;;;;;;;;;;;;;5036869;28;19909;-21
2023/06/16 16:09:47;;;;;;;;;;;;;;;;;;5036298;28;19953;-22
2023/06/16 16:12:13;;;;;;;;;;;;;;;;;;5036906;28;19909;-20
2023/06/16 16:14:39;;;;;;;;;;;;;;;;;;5036701;28;19997;-21
2023/06/16 16:17:05;;;;;;;;;;;;;;;;;;5036643;28;20354;-22
2023/06/16 16:19:31;;;;;;;;;;;;;;;;;;5036606;28;19909;-22
2023/06/16 16:21:57;;;;;;;;;;;;;;;;;;5036534;28;19910;-22
2023/06/16 16:24:23;;;;;;;;;;;;;;;;;;5036684;28;19909;-22
2023/06/16 16:26:49;;;;;;;;;;;;;;;;;;5035532;28;19909;-21
2023/06/16 16:29:20;;;;;;;;;;;;;;;;;;5036623;28;20211;-22
2023/06/16 16:31:46;;;;;;;;;;;;;;;;;;5036182;28;19953;-21
2023/06/16 16:34:12;;;;;;;;;;;;;;;;;;5036399;28;20022;-23
2023/06/16 16:36:38;;;;;;;;;;;;;;;;;;5036106;28;20005;-22
2023/06/16 16:39:04;;;;;;;;;;;;;;;;;;5036162;28;19991;-21